createdAt,value
2018-07-27T00:00:31.953Z,7.05
2018-07-27T00:02:59.773Z,7.00
2018-07-27T00:05:27.650Z,6.92
2018-07-27T00:07:55.583Z,7.00
2018-07-27T00:10:23.493Z,7.22
2018-07-27T00:12:51.366Z,6.83
2018-07-27T00:15:19.260Z,6.95
2018-07-27T00:17:47.128Z,7.05
2018-07-27T00:20:14.990Z,6.65
2018-07-27T00:22:42.824Z,7.67
2018-07-27T00:25:10.646Z,7.65
2018-07-27T00:27:38.495Z,6.83
2018-07-27T00:30:06.827Z,7.47
2018-07-27T00:32:34.766Z,7.30
2018-07-27T00:35:02.600Z,7.37
2018-07-27T00:37:30.508Z,7.65
2018-07-27T00:39:58.366Z,7.47
2018-07-27T00:42:26.261Z,7.00
2018-07-27T00:44:54.112Z,7.35
2018-07-27T00:47:21.950Z,7.65
2018-07-27T00:49:49.823Z,7.10
2018-07-27T00:52:17.684Z,7.22
2018-07-27T00:54:45.578Z,8.03
2018-07-27T00:57:13.421Z,7.28
2018-07-27T00:59:41.306Z,7.08
2018-07-27T01:02:09.129Z,7.62
2018-07-27T01:04:37.011Z,7.50
2018-07-27T01:07:04.881Z,7.47
2018-07-27T01:09:32.749Z,7.37
2018-07-27T01:12:00.641Z,7.72
2018-07-27T01:14:28.521Z,6.90
2018-07-27T01:16:56.370Z,7.67
2018-07-27T01:19:24.149Z,7.33
2018-07-27T01:21:52.061Z,7.15
2018-07-27T01:24:19.968Z,7.30
2018-07-27T01:26:47.943Z,7.75
2018-07-27T01:29:17.525Z,7.30
2018-07-27T01:31:45.474Z,7.28
2018-07-27T01:34:13.283Z,7.47
2018-07-27T01:36:41.262Z,7.97
2018-07-27T01:39:12.652Z,8.13
2018-07-27T01:41:40.981Z,7.83
2018-07-27T01:47:18.990Z,8.50
2018-07-27T01:49:46.571Z,8.03
2018-07-27T01:52:14.172Z,8.78
2018-07-27T01:54:41.734Z,7.92
2018-07-27T01:57:09.326Z,7.80
2018-07-27T01:59:36.882Z,8.35
2018-07-27T02:02:04.517Z,8.15
2018-07-27T02:04:32.090Z,8.55
2018-07-27T02:06:59.647Z,8.00
2018-07-27T02:09:27.225Z,8.50
2018-07-27T02:11:54.818Z,8.48
2018-07-27T02:14:22.385Z,7.67
2018-07-27T02:16:49.990Z,8.00
2018-07-27T02:19:17.570Z,7.78
2018-07-27T02:21:45.120Z,7.53
2018-07-27T02:24:12.664Z,8.03
2018-07-27T02:26:40.195Z,8.00
2018-07-27T02:29:07.786Z,8.65
2018-07-27T02:31:35.312Z,8.50
2018-07-27T02:34:02.888Z,8.50
2018-07-27T02:36:30.446Z,8.95
2018-07-27T02:38:58.030Z,9.73
2018-07-27T02:41:25.578Z,8.78
2018-07-27T02:43:53.127Z,9.68
2018-07-27T02:46:20.672Z,9.53
2018-07-27T02:48:48.212Z,9.73
2018-07-27T02:51:15.763Z,9.40
2018-07-27T02:53:43.308Z,9.48
2018-07-27T02:56:10.846Z,9.65
2018-07-27T02:58:38.390Z,9.10
2018-07-27T03:01:06.628Z,9.88
2018-07-27T03:03:34.178Z,9.88
2018-07-27T03:06:01.778Z,9.20
2018-07-27T03:08:29.386Z,9.53
2018-07-27T03:10:57.002Z,9.15
2018-07-27T03:13:24.615Z,8.88
2018-07-27T03:15:52.174Z,9.18
2018-07-27T03:18:19.942Z,9.60
2018-07-27T03:20:47.491Z,8.50
2018-07-27T03:23:15.030Z,9.00
2018-07-27T03:25:42.558Z,9.45
2018-07-27T03:28:10.141Z,10.00
2018-07-27T03:30:37.708Z,9.75
2018-07-27T03:33:05.244Z,9.38
2018-07-27T03:35:32.787Z,9.80
2018-07-27T03:38:00.326Z,9.23
2018-07-27T03:40:27.870Z,9.20
2018-07-27T03:42:55.422Z,9.57
2018-07-27T03:45:22.991Z,9.30
2018-07-27T03:47:50.554Z,9.78
2018-07-27T03:50:18.135Z,9.73
2018-07-27T03:52:45.654Z,9.23
2018-07-27T03:55:13.226Z,8.75
2018-07-27T03:57:40.837Z,9.25
2018-07-27T04:00:10.709Z,9.50
2018-07-27T04:02:38.238Z,8.80
2018-07-27T04:05:05.980Z,9.20
2018-07-27T04:07:33.702Z,9.23
2018-07-27T04:10:01.472Z,9.00
2018-07-27T04:12:29.007Z,9.00
2018-07-27T04:14:56.625Z,8.48
2018-07-27T04:17:24.142Z,9.63
2018-07-27T04:19:52.425Z,9.33
2018-07-27T04:22:20.694Z,9.15
2018-07-27T04:24:48.581Z,8.80
2018-07-27T04:27:16.137Z,9.60
2018-07-27T04:29:43.698Z,9.35
2018-07-27T04:32:11.261Z,9.10
2018-07-27T04:34:38.806Z,9.35
2018-07-27T04:37:06.566Z,9.35
2018-07-27T04:39:34.117Z,9.60
2018-07-27T04:42:01.674Z,8.83
2018-07-27T04:44:29.221Z,8.70
2018-07-27T04:46:56.776Z,9.63
2018-07-27T04:49:24.360Z,9.10
2018-07-27T04:51:51.878Z,9.15
2018-07-27T04:54:19.420Z,9.70
2018-07-27T04:56:47.018Z,8.70
2018-07-27T04:59:14.529Z,8.90
2018-07-27T05:01:42.099Z,10.20
2018-07-27T05:04:09.642Z,8.93
2018-07-27T05:06:37.190Z,9.13
2018-07-27T05:09:12.609Z,9.90
2018-07-27T05:11:40.398Z,9.23
2018-07-27T05:14:08.145Z,9.35
2018-07-27T05:16:35.765Z,10.00
2018-07-27T05:19:03.286Z,9.63
2018-07-27T05:21:30.825Z,9.78
2018-07-27T05:23:58.441Z,10.05
2018-07-27T05:26:25.979Z,9.95
2018-07-27T05:28:53.520Z,9.73
2018-07-27T05:31:23.166Z,8.83
2018-07-27T05:33:50.732Z,10.93
2018-07-27T05:36:18.288Z,10.53
2018-07-27T05:38:45.851Z,11.38
2018-07-27T05:41:13.478Z,11.30
2018-07-27T05:43:41.026Z,11.75
2018-07-27T05:46:08.712Z,13.20
2018-07-27T05:48:36.625Z,13.40
2018-07-27T05:51:04.462Z,13.00
2018-07-27T05:53:32.296Z,11.15
2018-07-27T05:56:00.168Z,13.28
2018-07-27T05:58:28.013Z,11.18
2018-07-27T06:00:55.850Z,11.85
2018-07-27T06:03:23.837Z,12.45
2018-07-27T06:05:51.679Z,12.75
2018-07-27T06:08:19.524Z,11.97
2018-07-27T06:10:47.405Z,13.22
2018-07-27T06:13:15.220Z,13.72
2018-07-27T06:15:43.120Z,12.35
2018-07-27T06:18:11.014Z,11.08
2018-07-27T06:20:38.700Z,12.03
2018-07-27T06:23:06.686Z,11.57
2018-07-27T06:25:34.540Z,11.75
2018-07-27T06:28:02.404Z,11.05
2018-07-27T06:30:30.215Z,10.78
2018-07-27T06:32:57.985Z,11.00
2018-07-27T06:35:25.819Z,10.23
2018-07-27T06:37:53.657Z,11.08
2018-07-27T06:40:21.434Z,10.98
2018-07-27T06:42:49.198Z,11.10
2018-07-27T06:45:17.064Z,11.33
2018-07-27T06:47:44.857Z,11.65
2018-07-27T06:50:12.697Z,11.03
2018-07-27T06:52:40.702Z,10.72
2018-07-27T06:55:08.485Z,11.43
2018-07-27T06:57:36.526Z,11.20
2018-07-27T07:00:05.147Z,11.48
2018-07-27T07:02:33.027Z,11.97
2018-07-27T07:05:01.057Z,10.78
2018-07-27T07:07:28.762Z,10.63
2018-07-27T07:09:56.619Z,10.72
2018-07-27T07:12:24.455Z,10.63
2018-07-27T07:14:52.326Z,10.08
2018-07-27T07:17:20.154Z,10.75
2018-07-27T07:19:47.995Z,10.75
2018-07-27T07:22:15.838Z,10.55
2018-07-27T07:24:43.779Z,10.28
2018-07-27T07:27:11.591Z,10.58
2018-07-27T07:29:39.456Z,10.40
2018-07-27T07:32:07.419Z,9.20
2018-07-27T07:34:35.223Z,9.50
2018-07-27T07:37:03.110Z,9.78
2018-07-27T07:39:30.993Z,9.75
2018-07-27T07:41:58.857Z,9.73
2018-07-27T07:44:26.718Z,9.53
2018-07-27T07:46:54.578Z,9.58
2018-07-27T07:49:22.559Z,9.23
2018-07-27T07:51:50.503Z,8.95
2018-07-27T07:54:18.375Z,8.65
2018-07-27T07:56:46.227Z,8.65
2018-07-27T07:59:14.103Z,8.00
2018-07-27T08:01:41.981Z,8.23
2018-07-27T08:04:09.805Z,8.53
2018-07-27T08:06:37.683Z,9.10
2018-07-27T08:09:07.767Z,8.63
2018-07-27T08:11:35.583Z,8.48
2018-07-27T08:14:03.699Z,9.10
2018-07-27T08:16:31.590Z,8.88
2018-07-27T08:18:59.483Z,8.48
2018-07-27T08:21:27.582Z,7.92
2018-07-27T08:23:56.084Z,8.80
2018-07-27T08:26:55.855Z,8.08
2018-07-27T08:29:25.194Z,7.85
2018-07-27T08:31:53.603Z,7.55
2018-07-27T08:34:21.549Z,7.20
2018-07-27T08:36:49.884Z,7.25
2018-07-27T08:39:19.744Z,7.50
2018-07-27T08:41:48.063Z,7.10
2018-07-27T08:44:18.297Z,7.22
2018-07-27T08:46:46.147Z,7.37
2018-07-27T08:49:14.036Z,7.55
2018-07-27T08:51:41.950Z,7.70
2018-07-27T08:54:09.734Z,7.22
2018-07-27T08:56:37.590Z,7.15
2018-07-27T08:59:05.626Z,7.22
2018-07-27T09:01:33.502Z,6.85
2018-07-27T09:04:01.363Z,6.95
2018-07-27T09:06:29.262Z,6.20
2018-07-27T09:08:57.191Z,5.97
2018-07-27T09:11:25.198Z,6.10
2018-07-27T09:13:53.545Z,6.15
2018-07-27T09:16:21.642Z,6.37
2018-07-27T09:18:50.133Z,6.58
2018-07-27T09:21:18.059Z,6.28
2018-07-27T09:23:45.963Z,6.45
2018-07-27T09:26:13.903Z,5.55
2018-07-27T09:28:41.841Z,5.90
2018-07-27T09:31:09.700Z,5.62
2018-07-27T09:33:37.534Z,5.58
2018-07-27T09:36:05.641Z,4.80
2018-07-27T09:38:33.474Z,4.53
2018-07-27T09:41:01.347Z,5.10
2018-07-27T09:43:29.256Z,5.45
2018-07-27T09:45:57.131Z,5.45
2018-07-27T09:48:24.907Z,5.25
2018-07-27T09:50:52.838Z,5.10
2018-07-27T09:53:20.604Z,5.10
2018-07-27T09:55:48.509Z,4.90
2018-07-27T09:58:16.457Z,4.92
2018-07-27T10:00:50.087Z,5.37
2018-07-27T10:03:18.030Z,5.75
2018-07-27T10:05:45.913Z,5.25
2018-07-27T10:08:13.600Z,5.50
2018-07-27T10:10:41.403Z,5.75
2018-07-27T10:13:09.303Z,5.08
2018-07-27T10:15:37.128Z,5.40
2018-07-27T10:18:05.267Z,5.30
2018-07-27T10:20:33.127Z,4.90
2018-07-27T10:23:01.098Z,5.00
2018-07-27T10:25:28.962Z,5.40
2018-07-27T10:27:56.681Z,5.20
2018-07-27T10:30:24.611Z,5.53
2018-07-27T10:32:52.407Z,5.62
2018-07-27T10:35:20.206Z,5.10
2018-07-27T10:37:47.979Z,5.60
2018-07-27T10:40:15.878Z,5.00
2018-07-27T10:42:43.729Z,4.95
2018-07-27T10:45:11.607Z,5.35
2018-07-27T10:47:39.422Z,5.92
2018-07-27T10:50:07.168Z,5.78
2018-07-27T10:52:35.025Z,5.83
2018-07-27T10:55:02.873Z,5.70
2018-07-27T10:57:30.690Z,6.28
2018-07-27T10:59:58.578Z,6.42
2018-07-27T11:02:26.489Z,6.30
2018-07-27T11:04:54.323Z,5.95
2018-07-27T11:07:22.178Z,5.60
2018-07-27T11:09:50.082Z,5.70
2018-07-27T11:12:17.861Z,5.70
2018-07-27T11:14:45.707Z,6.12
2018-07-27T11:17:13.601Z,6.30
2018-07-27T11:19:41.299Z,5.85
2018-07-27T11:22:09.173Z,5.85
2018-07-27T11:24:37.077Z,5.80
2018-07-27T11:27:04.932Z,6.47
2018-07-27T11:29:32.765Z,6.10
2018-07-27T11:32:00.652Z,6.20
2018-07-27T11:34:28.411Z,5.80
2018-07-27T11:36:56.247Z,6.05
2018-07-27T11:39:24.042Z,5.90
2018-07-27T11:41:51.813Z,6.28
2018-07-27T11:44:19.630Z,5.72
2018-07-27T11:46:47.458Z,5.90
2018-07-27T11:49:15.240Z,5.75
2018-07-27T11:51:43.130Z,5.67
2018-07-27T11:54:10.923Z,5.75
2018-07-27T11:56:38.718Z,5.28
2018-07-27T11:59:06.643Z,5.33
2018-07-27T12:01:34.565Z,5.58
2018-07-27T12:04:02.397Z,5.33
2018-07-27T12:06:30.160Z,5.70
2018-07-27T12:08:57.902Z,5.10
2018-07-27T12:11:25.770Z,4.75
2018-07-27T12:13:53.652Z,4.95
2018-07-27T12:16:21.417Z,5.35
2018-07-27T12:18:49.281Z,4.92
2018-07-27T12:21:17.144Z,5.10
2018-07-27T12:23:44.814Z,5.80
2018-07-27T12:26:12.625Z,5.42
2018-07-27T12:28:44.807Z,5.60
2018-07-27T12:31:12.620Z,5.50
2018-07-27T12:33:43.787Z,5.70
2018-07-27T12:36:18.675Z,5.15
2018-07-27T12:38:46.583Z,5.67
2018-07-27T12:41:14.408Z,5.85
2018-07-27T12:46:48.010Z,5.95
2018-07-27T12:49:21.664Z,5.95
2018-07-27T12:51:49.517Z,5.50
2018-07-27T12:54:17.318Z,5.92
2018-07-27T12:56:45.187Z,5.35
2018-07-27T12:59:13.015Z,5.60
2018-07-27T13:01:40.869Z,5.50
2018-07-27T13:04:08.761Z,5.97
2018-07-27T13:06:47.091Z,5.67
2018-07-27T13:09:14.837Z,5.30
2018-07-27T13:11:42.767Z,5.55
2018-07-27T13:14:10.670Z,5.37
2018-07-27T13:16:38.587Z,5.60
2018-07-27T13:19:06.463Z,5.22
2018-07-27T13:21:34.349Z,5.25
2018-07-27T13:24:02.718Z,5.62
2018-07-27T13:26:30.620Z,5.30
2018-07-27T13:28:58.505Z,5.20
2018-07-27T13:31:53.709Z,5.33
2018-07-27T13:34:39.423Z,5.78
2018-07-27T13:37:07.447Z,5.65
2018-07-27T13:39:35.817Z,5.87
2018-07-27T13:42:04.447Z,6.92
2018-07-27T13:44:33.344Z,6.58
2018-07-27T13:47:01.751Z,7.22
2018-07-27T13:49:29.502Z,7.42
2018-07-27T13:51:58.048Z,7.22
2018-07-27T13:54:26.196Z,7.87
2018-07-27T13:56:54.055Z,6.72
2018-07-27T13:59:21.809Z,6.92
2018-07-27T14:01:49.778Z,6.62
2018-07-27T14:04:17.775Z,6.87
2018-07-27T14:06:47.307Z,6.87
2018-07-27T14:09:15.204Z,6.95
2018-07-27T14:11:42.990Z,6.25
2018-07-27T14:14:11.085Z,5.75
2018-07-27T14:16:39.446Z,5.60
2018-07-27T14:19:07.329Z,4.92
2018-07-27T14:21:35.280Z,5.20
2018-07-27T14:24:03.092Z,5.40
2018-07-27T14:26:30.874Z,5.37
2018-07-27T14:28:58.785Z,5.70
2018-07-27T14:31:26.677Z,6.28
2018-07-27T14:33:54.541Z,7.10
2018-07-27T14:36:22.919Z,7.15
2018-07-27T14:38:50.800Z,7.40
2018-07-27T14:41:19.631Z,6.05
2018-07-27T14:43:47.560Z,5.40
2018-07-27T14:46:15.574Z,6.12
2018-07-27T14:48:43.489Z,8.10
2018-07-27T14:51:11.359Z,9.55
2018-07-27T14:53:39.238Z,12.82
2018-07-27T14:56:07.089Z,13.88
2018-07-27T14:58:34.979Z,16.23
2018-07-27T15:01:02.835Z,14.00
2018-07-27T15:03:30.737Z,13.10
2018-07-27T15:05:58.670Z,12.60
2018-07-27T15:08:26.617Z,11.90
2018-07-27T15:10:54.849Z,12.88
2018-07-27T15:13:22.747Z,12.60
2018-07-27T15:15:50.776Z,12.82
2018-07-27T15:18:18.645Z,14.33
2018-07-27T15:20:46.698Z,14.60
2018-07-27T15:23:14.534Z,12.15
2018-07-27T15:25:42.448Z,10.10
2018-07-27T15:28:10.359Z,9.93
2018-07-27T15:30:38.255Z,10.35
2018-07-27T15:33:06.141Z,11.80
2018-07-27T15:35:34.120Z,12.55
2018-07-27T15:38:02.023Z,8.98
2018-07-27T15:40:29.871Z,10.65
2018-07-27T15:42:57.846Z,7.92
2018-07-27T15:45:25.669Z,8.60
2018-07-27T15:47:53.543Z,8.70
2018-07-27T15:50:21.485Z,8.18
2018-07-27T15:52:49.604Z,9.43
2018-07-27T15:55:17.445Z,8.33
2018-07-27T15:57:45.422Z,7.20
2018-07-27T16:00:13.266Z,10.88
2018-07-27T16:02:41.174Z,10.43
2018-07-27T16:05:09.082Z,10.95
2018-07-27T16:07:37.037Z,10.72
2018-07-27T16:10:05.251Z,10.28
2018-07-27T16:12:33.438Z,10.45
2018-07-27T16:15:01.233Z,12.15
2018-07-27T16:17:29.101Z,10.68
2018-07-27T16:19:56.888Z,10.58
2018-07-27T16:22:24.700Z,11.10
2018-07-27T16:24:52.625Z,11.73
2018-07-27T16:27:20.447Z,12.05
2018-07-27T16:29:48.343Z,11.65
2018-07-27T16:32:16.212Z,12.33
2018-07-27T16:34:44.091Z,11.90
2018-07-27T16:37:11.915Z,11.75
2018-07-27T16:39:39.783Z,10.23
2018-07-27T16:42:07.607Z,10.03
2018-07-27T16:44:35.420Z,10.50
2018-07-27T16:47:03.279Z,10.30
2018-07-27T16:49:31.160Z,10.58
2018-07-27T16:51:58.986Z,10.25
2018-07-27T16:54:26.833Z,11.22
2018-07-27T16:56:54.675Z,12.10
2018-07-27T16:59:22.527Z,12.23
2018-07-27T17:01:50.345Z,13.28
2018-07-27T17:04:18.338Z,12.75
2018-07-27T17:06:46.251Z,13.28
2018-07-27T17:09:14.235Z,11.03
2018-07-27T17:11:42.096Z,11.83
2018-07-27T17:14:09.885Z,11.28
2018-07-27T17:16:37.810Z,11.08
2018-07-27T17:19:05.708Z,11.88
2018-07-27T17:21:33.761Z,11.63
2018-07-27T17:24:01.660Z,12.43
2018-07-27T17:26:29.547Z,12.45
2018-07-27T17:28:57.399Z,12.75
2018-07-27T17:31:25.223Z,13.50
2018-07-27T17:33:53.456Z,13.83
2018-07-27T17:36:21.372Z,14.18
2018-07-27T17:38:49.448Z,13.98
2018-07-27T17:41:17.327Z,14.10
2018-07-27T17:43:45.230Z,14.07
2018-07-27T17:46:13.159Z,15.20
2018-07-27T17:48:41.083Z,12.40
2018-07-27T17:51:09.018Z,10.90
2018-07-27T17:53:36.937Z,12.05
2018-07-27T17:56:05.029Z,14.23
2018-07-27T17:58:32.899Z,13.32
2018-07-27T18:01:00.770Z,12.47
2018-07-27T18:03:28.742Z,14.83
2018-07-27T18:05:56.609Z,16.27
2018-07-27T18:08:24.530Z,17.27
2018-07-27T18:10:52.485Z,15.15
2018-07-27T18:13:20.379Z,15.28
2018-07-27T18:15:48.172Z,15.65
2018-07-27T18:18:15.984Z,16.65
2018-07-27T18:20:43.784Z,15.78
2018-07-27T18:23:11.667Z,17.62
2018-07-27T18:25:39.544Z,18.37
2018-07-27T18:28:07.422Z,19.42
2018-07-27T18:30:35.299Z,19.20
2018-07-27T18:33:03.223Z,18.67
2018-07-27T18:35:31.149Z,18.05
2018-07-27T18:37:59.007Z,19.52
2018-07-27T18:40:26.884Z,20.35
2018-07-27T18:42:54.751Z,18.60
2018-07-27T18:45:22.711Z,19.05
2018-07-27T18:47:50.596Z,19.27
2018-07-27T18:50:18.409Z,20.90
2018-07-27T18:52:46.331Z,21.75
2018-07-27T18:55:14.125Z,21.40
2018-07-27T18:57:41.968Z,21.45
2018-07-27T19:00:09.824Z,23.15
2018-07-27T19:02:37.732Z,22.15
2018-07-27T19:05:05.678Z,22.20
2018-07-27T19:07:33.553Z,22.73
2018-07-27T19:10:01.431Z,23.12
2018-07-27T19:12:29.346Z,22.35
2018-07-27T19:14:57.203Z,21.95
2018-07-27T19:17:25.139Z,23.35
2018-07-27T19:19:53.035Z,25.30
2018-07-27T19:22:20.926Z,22.65
2018-07-27T19:24:48.831Z,24.10
2018-07-27T19:27:16.658Z,25.05
2018-07-27T19:29:44.509Z,25.00
2018-07-27T19:32:12.358Z,25.72
2018-07-27T19:34:40.190Z,24.85
2018-07-27T19:37:08.210Z,28.45
2018-07-27T19:39:36.005Z,29.65
2018-07-27T19:42:04.026Z,28.45
2018-07-27T19:44:31.850Z,27.15
2018-07-27T19:46:59.660Z,27.20
2018-07-27T19:49:27.487Z,26.85
2018-07-27T19:51:55.382Z,26.85
2018-07-27T19:54:23.222Z,26.02
2018-07-27T19:56:51.038Z,24.18
2018-07-27T19:59:18.900Z,23.55
2018-07-27T20:01:46.808Z,23.67
2018-07-27T20:04:14.749Z,24.37
2018-07-27T20:06:42.594Z,24.05
2018-07-27T20:09:10.980Z,23.27
2018-07-27T20:11:38.787Z,22.00
2018-07-27T20:14:06.591Z,22.58
2018-07-27T20:16:34.475Z,24.47
2018-07-27T20:19:02.346Z,23.60
2018-07-27T20:21:30.271Z,31.00
2018-07-27T20:23:58.147Z,34.58
2018-07-27T20:26:26.021Z,31.33
2018-07-27T20:28:53.930Z,30.80
2018-07-27T20:31:21.822Z,28.77
2018-07-27T20:33:49.693Z,30.72
2018-07-27T20:36:17.595Z,29.80
2018-07-27T20:38:45.558Z,30.70
2018-07-27T20:41:13.463Z,30.52
2018-07-27T20:43:41.382Z,29.70
2018-07-27T20:46:09.350Z,26.57
2018-07-27T20:48:37.297Z,27.40
2018-07-27T20:51:05.215Z,25.90
2018-07-27T20:53:33.256Z,25.25
2018-07-27T20:56:01.175Z,25.30
2018-07-27T20:58:29.127Z,22.90
2018-07-27T21:00:57.036Z,21.82
2018-07-27T21:03:24.991Z,15.78
2018-07-27T21:05:52.849Z,15.70
2018-07-27T21:08:20.761Z,18.73
2018-07-27T21:10:48.690Z,20.95
2018-07-27T21:13:16.663Z,19.62
2018-07-27T21:15:47.150Z,25.02
2018-07-27T21:18:14.937Z,25.35
2018-07-27T21:20:42.793Z,23.15
2018-07-27T21:23:10.669Z,25.92
2018-07-27T21:25:38.503Z,25.10
2018-07-27T21:28:06.435Z,25.12
2018-07-27T21:30:34.255Z,24.30
2018-07-27T21:33:02.116Z,21.10
2018-07-27T21:35:30.022Z,19.30
2018-07-27T21:37:57.863Z,18.48
2018-07-27T21:40:25.679Z,19.73
2018-07-27T21:42:53.591Z,17.32
2018-07-27T21:45:21.446Z,19.40
2018-07-27T21:47:49.381Z,18.00
2018-07-27T21:50:17.269Z,19.67
2018-07-27T21:52:47.235Z,18.92
2018-07-27T21:55:15.086Z,18.15
2018-07-27T21:57:43.242Z,18.90
2018-07-27T22:03:38.787Z,17.85
2018-07-27T22:06:21.678Z,18.50
2018-07-27T22:08:49.546Z,19.77
2018-07-27T22:11:17.444Z,19.23
2018-07-27T22:13:45.924Z,19.05
2018-07-27T22:16:13.769Z,18.37
2018-07-27T22:18:41.745Z,17.65
2018-07-27T22:21:09.646Z,18.98
2018-07-27T22:23:47.283Z,19.52
2018-07-27T22:26:15.115Z,19.48
2018-07-27T22:29:02.019Z,20.50
2018-07-27T22:34:33.274Z,20.85
2018-07-27T22:40:08.901Z,17.62
2018-07-27T22:42:39.237Z,17.32
2018-07-27T22:45:08.507Z,18.10
2018-07-27T22:47:36.443Z,16.45
2018-07-27T22:50:05.551Z,19.90
2018-07-27T22:52:38.048Z,19.60
2018-07-27T22:55:08.103Z,17.15
2018-07-27T22:57:36.047Z,17.60
2018-07-27T23:00:05.643Z,18.15
2018-07-27T23:02:33.547Z,18.17
2018-07-27T23:05:01.457Z,17.20
2018-07-27T23:07:29.299Z,18.32
2018-07-27T23:09:57.174Z,18.30
2018-07-27T23:12:25.031Z,18.20
2018-07-27T23:14:53.003Z,18.45
2018-07-27T23:17:20.882Z,19.15
2018-07-27T23:19:48.743Z,17.25
2018-07-27T23:22:16.573Z,18.02
2018-07-27T23:24:44.368Z,19.07
2018-07-27T23:27:12.281Z,19.20
2018-07-27T23:29:40.102Z,19.67
2018-07-27T23:32:07.933Z,20.15
2018-07-27T23:34:35.805Z,19.90
2018-07-27T23:37:04.507Z,18.57
2018-07-27T23:39:32.367Z,20.05
2018-07-27T23:42:00.207Z,18.95
2018-07-27T23:44:28.068Z,18.95
2018-07-27T23:46:55.951Z,19.50
2018-07-27T23:49:23.743Z,20.37
2018-07-27T23:51:51.619Z,19.50
2018-07-27T23:54:19.517Z,19.85
2018-07-27T23:56:47.422Z,20.17
2018-07-27T23:59:15.346Z,21.35
